sensor_id;sensor_type;location;lat;lon;timestamp;temperature;humidity
39695;DHT22;25367;-35.352;149.036;2023-09-12T00:01:23;16.40;60.20
39695;DHT22;25367;-35.352;149.036;2023-09-12T00:03:53;16.40;60.20
39695;DHT22;25367;-35.352;149.036;2023-09-12T00:06:24;16.40;60.10
39695;DHT22;25367;-35.352;149.036;2023-09-12T00:08:54;16.40;60.10
39695;DHT22;25367;-35.352;149.036;2023-09-12T00:11:23;16.40;60.10
39695;DHT22;25367;-35.352;149.036;2023-09-12T00:13:53;16.40;60.10
39695;DHT22;25367;-35.352;149.036;2023-09-12T00:16:23;16.40;60.00
39695;DHT22;25367;-35.352;149.036;2023-09-12T00:20:05;16.40;59.00
39695;DHT22;25367;-35.352;149.036;2023-09-12T00:22:35;16.40;60.10
39695;DHT22;25367;-35.352;149.036;2023-09-12T00:25:05;16.40;60.20
39695;DHT22;25367;-35.352;149.036;2023-09-12T00:27:34;16.40;60.30
39695;DHT22;25367;-35.352;149.036;2023-09-12T00:30:04;16.40;60.30
39695;DHT22;25367;-35.352;149.036;2023-09-12T00:32:35;16.40;60.40
39695;DHT22;25367;-35.352;149.036;2023-09-12T00:35:08;16.40;60.50
39695;DHT22;25367;-35.352;149.036;2023-09-12T00:37:37;16.50;60.50
39695;DHT22;25367;-35.352;149.036;2023-09-12T00:40:08;16.50;60.50
39695;DHT22;25367;-35.352;149.036;2023-09-12T00:42:37;16.50;60.50
39695;DHT22;25367;-35.352;149.036;2023-09-12T00:45:07;16.50;60.60
39695;DHT22;25367;-35.352;149.036;2023-09-12T00:47:37;16.50;60.60
39695;DHT22;25367;-35.352;149.036;2023-09-12T00:50:11;16.60;60.60
39695;DHT22;25367;-35.352;149.036;2023-09-12T00:52:42;16.60;60.60
39695;DHT22;25367;-35.352;149.036;2023-09-12T00:55:12;16.60;60.70
39695;DHT22;25367;-35.352;149.036;2023-09-12T00:57:42;16.60;60.60
39695;DHT22;25367;-35.352;149.036;2023-09-12T01:00:13;16.60;60.60
39695;DHT22;25367;-35.352;149.036;2023-09-12T01:02:44;16.60;60.60
39695;DHT22;25367;-35.352;149.036;2023-09-12T01:05:18;16.70;60.40
39695;DHT22;25367;-35.352;149.036;2023-09-12T01:07:48;16.80;60.40
39695;DHT22;25367;-35.352;149.036;2023-09-12T01:10:17;16.80;60.30
39695;DHT22;25367;-35.352;149.036;2023-09-12T01:12:48;16.80;60.20
39695;DHT22;25367;-35.352;149.036;2023-09-12T01:15:18;16.80;60.20
39695;DHT22;25367;-35.352;149.036;2023-09-12T01:17:48;16.80;60.10
39695;DHT22;25367;-35.352;149.036;2023-09-12T01:20:25;16.80;60.10
39695;DHT22;25367;-35.352;149.036;2023-09-12T01:23:05;16.90;60.00
39695;DHT22;25367;-35.352;149.036;2023-09-12T01:28:39;17.00;60.20
39695;DHT22;25367;-35.352;149.036;2023-09-12T01:31:09;17.00;61.30
39695;DHT22;25367;-35.352;149.036;2023-09-12T01:33:40;17.10;62.00
39695;DHT22;25367;-35.352;149.036;2023-09-12T01:36:10;17.20;62.50
39695;DHT22;25367;-35.352;149.036;2023-09-12T01:38:40;17.30;62.70
39695;DHT22;25367;-35.352;149.036;2023-09-12T01:41:09;17.50;62.80
39695;DHT22;25367;-35.352;149.036;2023-09-12T01:43:43;17.70;62.60
39695;DHT22;25367;-35.352;149.036;2023-09-12T01:46:13;17.80;62.20
39695;DHT22;25367;-35.352;149.036;2023-09-12T01:48:45;17.90;61.60
39695;DHT22;25367;-35.352;149.036;2023-09-12T01:51:16;18.00;61.50
39695;DHT22;25367;-35.352;149.036;2023-09-12T01:53:46;18.00;60.80
39695;DHT22;25367;-35.352;149.036;2023-09-12T01:56:16;18.10;60.40
39695;DHT22;25367;-35.352;149.036;2023-09-12T01:58:52;18.20;60.40
39695;DHT22;25367;-35.352;149.036;2023-09-12T02:01:22;18.30;61.00
39695;DHT22;25367;-35.352;149.036;2023-09-12T02:03:52;18.50;60.50
39695;DHT22;25367;-35.352;149.036;2023-09-12T02:06:21;18.60;60.40
39695;DHT22;25367;-35.352;149.036;2023-09-12T02:08:50;18.70;60.20
39695;DHT22;25367;-35.352;149.036;2023-09-12T02:11:20;18.80;60.10
39695;DHT22;25367;-35.352;149.036;2023-09-12T02:13:53;18.80;60.00
39695;DHT22;25367;-35.352;149.036;2023-09-12T02:16:23;18.80;59.80
39695;DHT22;25367;-35.352;149.036;2023-09-12T02:18:53;18.80;59.80
39695;DHT22;25367;-35.352;149.036;2023-09-12T02:21:22;18.90;59.60
39695;DHT22;25367;-35.352;149.036;2023-09-12T02:23:51;18.90;59.40
39695;DHT22;25367;-35.352;149.036;2023-09-12T02:26:21;18.90;59.30
39695;DHT22;25367;-35.352;149.036;2023-09-12T02:28:53;18.90;59.80
39695;DHT22;25367;-35.352;149.036;2023-09-12T02:31:23;18.90;59.20
39695;DHT22;25367;-35.352;149.036;2023-09-12T02:33:52;18.90;59.00
39695;DHT22;25367;-35.352;149.036;2023-09-12T02:36:22;18.90;58.90
39695;DHT22;25367;-35.352;149.036;2023-09-12T02:38:51;18.90;58.90
39695;DHT22;25367;-35.352;149.036;2023-09-12T02:41:20;18.90;58.80
39695;DHT22;25367;-35.352;149.036;2023-09-12T02:43:53;18.90;58.70
39695;DHT22;25367;-35.352;149.036;2023-09-12T02:46:23;18.90;58.60
39695;DHT22;25367;-35.352;149.036;2023-09-12T02:48:52;18.90;58.50
39695;DHT22;25367;-35.352;149.036;2023-09-12T02:51:22;18.90;58.40
39695;DHT22;25367;-35.352;149.036;2023-09-12T02:53:51;18.90;58.40
39695;DHT22;25367;-35.352;149.036;2023-09-12T02:56:20;18.90;58.30
39695;DHT22;25367;-35.352;149.036;2023-09-12T02:58:53;18.90;58.30
39695;DHT22;25367;-35.352;149.036;2023-09-12T03:01:23;18.90;58.20
39695;DHT22;25367;-35.352;149.036;2023-09-12T03:03:52;18.90;58.10
39695;DHT22;25367;-35.352;149.036;2023-09-12T03:06:22;18.90;58.10
39695;DHT22;25367;-35.352;149.036;2023-09-12T03:08:52;18.90;58.10
39695;DHT22;25367;-35.352;149.036;2023-09-12T03:11:21;18.90;58.10
39695;DHT22;25367;-35.352;149.036;2023-09-12T03:13:54;18.90;58.20
39695;DHT22;25367;-35.352;149.036;2023-09-12T03:16:24;18.90;58.30
39695;DHT22;25367;-35.352;149.036;2023-09-12T03:18:53;18.90;58.40
39695;DHT22;25367;-35.352;149.036;2023-09-12T03:21:22;18.90;58.50
39695;DHT22;25367;-35.352;149.036;2023-09-12T03:23:52;18.90;58.40
39695;DHT22;25367;-35.352;149.036;2023-09-12T03:26:22;19.00;58.50
39695;DHT22;25367;-35.352;149.036;2023-09-12T03:28:55;19.00;58.30
39695;DHT22;25367;-35.352;149.036;2023-09-12T03:31:25;19.00;58.20
39695;DHT22;25367;-35.352;149.036;2023-09-12T03:33:55;19.00;58.10
39695;DHT22;25367;-35.352;149.036;2023-09-12T03:36:24;19.00;58.10
39695;DHT22;25367;-35.352;149.036;2023-09-12T03:38:54;19.10;58.20
39695;DHT22;25367;-35.352;149.036;2023-09-12T03:41:23;19.00;58.20
39695;DHT22;25367;-35.352;149.036;2023-09-12T03:43:57;19.10;58.50
39695;DHT22;25367;-35.352;149.036;2023-09-12T03:46:27;19.00;58.50
39695;DHT22;25367;-35.352;149.036;2023-09-12T03:48:57;19.10;58.70
39695;DHT22;25367;-35.352;149.036;2023-09-12T03:51:26;19.10;58.70
39695;DHT22;25367;-35.352;149.036;2023-09-12T03:53:55;19.10;58.80
39695;DHT22;25367;-35.352;149.036;2023-09-12T03:56:25;19.10;58.80
39695;DHT22;25367;-35.352;149.036;2023-09-12T03:58:57;19.10;58.80
39695;DHT22;25367;-35.352;149.036;2023-09-12T04:01:27;19.10;58.70
39695;DHT22;25367;-35.352;149.036;2023-09-12T04:03:57;19.10;58.70
39695;DHT22;25367;-35.352;149.036;2023-09-12T04:06:27;19.10;58.70
39695;DHT22;25367;-35.352;149.036;2023-09-12T04:08:57;19.10;58.70
39695;DHT22;25367;-35.352;149.036;2023-09-12T04:11:27;19.20;58.80
39695;DHT22;25367;-35.352;149.036;2023-09-12T04:13:59;19.20;58.80
39695;DHT22;25367;-35.352;149.036;2023-09-12T04:16:28;19.10;58.80
39695;DHT22;25367;-35.352;149.036;2023-09-12T04:18:58;19.10;58.70
39695;DHT22;25367;-35.352;149.036;2023-09-12T04:21:28;19.20;58.70
39695;DHT22;25367;-35.352;149.036;2023-09-12T04:23:57;19.20;58.70
39695;DHT22;25367;-35.352;149.036;2023-09-12T04:26:27;19.20;58.70
39695;DHT22;25367;-35.352;149.036;2023-09-12T04:28:59;19.20;58.70
39695;DHT22;25367;-35.352;149.036;2023-09-12T04:31:29;19.20;58.50
39695;DHT22;25367;-35.352;149.036;2023-09-12T04:33:58;19.20;58.50
39695;DHT22;25367;-35.352;149.036;2023-09-12T04:36:28;19.20;58.70
39695;DHT22;25367;-35.352;149.036;2023-09-12T04:38:58;19.20;58.40
39695;DHT22;25367;-35.352;149.036;2023-09-12T04:41:27;19.20;58.40
39695;DHT22;25367;-35.352;149.036;2023-09-12T04:44:00;19.20;58.40
39695;DHT22;25367;-35.352;149.036;2023-09-12T04:46:29;19.20;58.40
39695;DHT22;25367;-35.352;149.036;2023-09-12T04:48:58;19.20;58.40
39695;DHT22;25367;-35.352;149.036;2023-09-12T04:51:28;19.20;58.40
39695;DHT22;25367;-35.352;149.036;2023-09-12T04:53:57;19.30;58.30
39695;DHT22;25367;-35.352;149.036;2023-09-12T04:56:27;19.20;58.80
39695;DHT22;25367;-35.352;149.036;2023-09-12T04:59:00;19.30;58.40
39695;DHT22;25367;-35.352;149.036;2023-09-12T05:01:29;19.30;58.20
39695;DHT22;25367;-35.352;149.036;2023-09-12T05:03:58;19.30;58.20
39695;DHT22;25367;-35.352;149.036;2023-09-12T05:06:28;19.30;58.20
39695;DHT22;25367;-35.352;149.036;2023-09-12T05:08:57;19.30;58.20
39695;DHT22;25367;-35.352;149.036;2023-09-12T05:11:27;19.30;58.20
39695;DHT22;25367;-35.352;149.036;2023-09-12T05:14:00;19.30;58.20
39695;DHT22;25367;-35.352;149.036;2023-09-12T05:16:30;19.30;58.10
39695;DHT22;25367;-35.352;149.036;2023-09-12T05:19:00;19.30;58.10
39695;DHT22;25367;-35.352;149.036;2023-09-12T05:21:31;19.40;58.10
39695;DHT22;25367;-35.352;149.036;2023-09-12T05:24:00;19.40;58.10
39695;DHT22;25367;-35.352;149.036;2023-09-12T05:26:29;19.40;58.10
39695;DHT22;25367;-35.352;149.036;2023-09-12T05:29:02;19.40;58.10
39695;DHT22;25367;-35.352;149.036;2023-09-12T05:31:32;19.40;58.00
39695;DHT22;25367;-35.352;149.036;2023-09-12T05:34:02;19.40;58.00
39695;DHT22;25367;-35.352;149.036;2023-09-12T05:36:31;19.40;58.00
39695;DHT22;25367;-35.352;149.036;2023-09-12T05:39:00;19.50;58.00
39695;DHT22;25367;-35.352;149.036;2023-09-12T05:41:30;19.40;57.90
39695;DHT22;25367;-35.352;149.036;2023-09-12T05:44:03;19.50;58.00
39695;DHT22;25367;-35.352;149.036;2023-09-12T05:46:33;19.50;57.90
39695;DHT22;25367;-35.352;149.036;2023-09-12T05:49:02;19.50;58.40
39695;DHT22;25367;-35.352;149.036;2023-09-12T05:51:32;19.50;58.00
39695;DHT22;25367;-35.352;149.036;2023-09-12T05:54:01;19.50;57.80
39695;DHT22;25367;-35.352;149.036;2023-09-12T05:56:31;19.50;57.90
39695;DHT22;25367;-35.352;149.036;2023-09-12T05:59:03;19.50;57.70
39695;DHT22;25367;-35.352;149.036;2023-09-12T06:01:32;19.50;57.70
39695;DHT22;25367;-35.352;149.036;2023-09-12T06:04:03;19.60;57.70
39695;DHT22;25367;-35.352;149.036;2023-09-12T06:06:33;19.60;57.60
39695;DHT22;25367;-35.352;149.036;2023-09-12T06:09:02;19.60;57.60
39695;DHT22;25367;-35.352;149.036;2023-09-12T06:11:31;19.60;57.50
39695;DHT22;25367;-35.352;149.036;2023-09-12T06:14:04;19.70;57.50
39695;DHT22;25367;-35.352;149.036;2023-09-12T06:16:34;19.60;57.40
39695;DHT22;25367;-35.352;149.036;2023-09-12T06:19:03;19.60;57.40
39695;DHT22;25367;-35.352;149.036;2023-09-12T06:21:33;19.60;57.30
39695;DHT22;25367;-35.352;149.036;2023-09-12T06:24:12;19.70;57.30
39695;DHT22;25367;-35.352;149.036;2023-09-12T06:26:42;19.70;57.20
39695;DHT22;25367;-35.352;149.036;2023-09-12T06:29:15;19.70;57.30
39695;DHT22;25367;-35.352;149.036;2023-09-12T06:31:45;19.70;57.20
39695;DHT22;25367;-35.352;149.036;2023-09-12T06:34:15;19.70;57.20
39695;DHT22;25367;-35.352;149.036;2023-09-12T06:36:45;19.70;57.20
39695;DHT22;25367;-35.352;149.036;2023-09-12T06:39:15;19.70;57.20
39695;DHT22;25367;-35.352;149.036;2023-09-12T06:41:44;19.70;57.20
39695;DHT22;25367;-35.352;149.036;2023-09-12T06:44:16;19.80;57.20
39695;DHT22;25367;-35.352;149.036;2023-09-12T06:46:45;19.80;57.10
39695;DHT22;25367;-35.352;149.036;2023-09-12T06:49:14;19.80;57.00
39695;DHT22;25367;-35.352;149.036;2023-09-12T06:51:44;19.80;57.00
39695;DHT22;25367;-35.352;149.036;2023-09-12T06:54:13;19.80;57.00
39695;DHT22;25367;-35.352;149.036;2023-09-12T06:56:43;19.80;56.90
39695;DHT22;25367;-35.352;149.036;2023-09-12T06:59:14;19.80;56.80
39695;DHT22;25367;-35.352;149.036;2023-09-12T07:01:43;19.80;56.90
39695;DHT22;25367;-35.352;149.036;2023-09-12T07:04:13;19.80;57.00
39695;DHT22;25367;-35.352;149.036;2023-09-12T07:06:42;19.80;56.80
39695;DHT22;25367;-35.352;149.036;2023-09-12T07:09:12;19.90;56.80
39695;DHT22;25367;-35.352;149.036;2023-09-12T07:11:41;19.90;56.70
39695;DHT22;25367;-35.352;149.036;2023-09-12T07:14:11;19.90;56.70
39695;DHT22;25367;-35.352;149.036;2023-09-12T07:16:44;19.90;56.60
39695;DHT22;25367;-35.352;149.036;2023-09-12T07:19:13;20.00;56.60
39695;DHT22;25367;-35.352;149.036;2023-09-12T07:21:43;20.00;56.60
39695;DHT22;25367;-35.352;149.036;2023-09-12T07:24:13;20.00;56.50
39695;DHT22;25367;-35.352;149.036;2023-09-12T07:26:42;20.00;56.50
39695;DHT22;25367;-35.352;149.036;2023-09-12T07:29:12;20.00;56.40
39695;DHT22;25367;-35.352;149.036;2023-09-12T07:31:45;20.00;56.30
39695;DHT22;25367;-35.352;149.036;2023-09-12T07:34:14;20.00;56.30
39695;DHT22;25367;-35.352;149.036;2023-09-12T07:36:44;20.00;56.20
39695;DHT22;25367;-35.352;149.036;2023-09-12T07:39:13;20.00;56.20
39695;DHT22;25367;-35.352;149.036;2023-09-12T07:41:43;20.00;56.20
39695;DHT22;25367;-35.352;149.036;2023-09-12T07:44:12;19.90;56.20
39695;DHT22;25367;-35.352;149.036;2023-09-12T07:46:45;19.90;56.20
39695;DHT22;25367;-35.352;149.036;2023-09-12T07:49:14;20.00;56.20
39695;DHT22;25367;-35.352;149.036;2023-09-12T07:51:43;19.90;56.20
39695;DHT22;25367;-35.352;149.036;2023-09-12T07:54:13;19.90;56.20
39695;DHT22;25367;-35.352;149.036;2023-09-12T07:56:43;19.90;56.20
39695;DHT22;25367;-35.352;149.036;2023-09-12T07:59:12;19.90;56.20
39695;DHT22;25367;-35.352;149.036;2023-09-12T08:01:44;19.90;56.20
39695;DHT22;25367;-35.352;149.036;2023-09-12T08:04:14;19.90;56.20
39695;DHT22;25367;-35.352;149.036;2023-09-12T08:06:44;19.90;56.20
39695;DHT22;25367;-35.352;149.036;2023-09-12T08:09:13;19.80;56.20
39695;DHT22;25367;-35.352;149.036;2023-09-12T08:11:43;19.90;56.30
39695;DHT22;25367;-35.352;149.036;2023-09-12T08:14:12;19.80;56.30
39695;DHT22;25367;-35.352;149.036;2023-09-12T08:16:43;19.80;56.30
39695;DHT22;25367;-35.352;149.036;2023-09-12T08:19:13;19.80;56.30
39695;DHT22;25367;-35.352;149.036;2023-09-12T08:21:42;19.80;56.40
39695;DHT22;25367;-35.352;149.036;2023-09-12T08:24:12;19.80;56.40
39695;DHT22;25367;-35.352;149.036;2023-09-12T08:26:41;19.80;56.30
39695;DHT22;25367;-35.352;149.036;2023-09-12T08:29:11;19.80;56.30
39695;DHT22;25367;-35.352;149.036;2023-09-12T08:31:43;19.80;56.30
39695;DHT22;25367;-35.352;149.036;2023-09-12T08:34:13;19.80;56.30
39695;DHT22;25367;-35.352;149.036;2023-09-12T08:36:43;19.80;56.40
39695;DHT22;25367;-35.352;149.036;2023-09-12T08:39:14;19.80;56.30
39695;DHT22;25367;-35.352;149.036;2023-09-12T08:41:44;19.90;56.40
39695;DHT22;25367;-35.352;149.036;2023-09-12T08:44:13;19.80;56.30
39695;DHT22;25367;-35.352;149.036;2023-09-12T08:46:46;19.80;56.30
39695;DHT22;25367;-35.352;149.036;2023-09-12T08:49:16;19.80;56.30
39695;DHT22;25367;-35.352;149.036;2023-09-12T08:51:46;19.80;56.40
39695;DHT22;25367;-35.352;149.036;2023-09-12T08:54:15;19.80;56.40
39695;DHT22;25367;-35.352;149.036;2023-09-12T08:56:45;19.80;56.40
39695;DHT22;25367;-35.352;149.036;2023-09-12T08:59:15;19.80;56.40
39695;DHT22;25367;-35.352;149.036;2023-09-12T09:01:49;19.80;56.40
39695;DHT22;25367;-35.352;149.036;2023-09-12T09:04:19;19.90;56.40
39695;DHT22;25367;-35.352;149.036;2023-09-12T09:06:50;19.80;56.40
39695;DHT22;25367;-35.352;149.036;2023-09-12T09:09:19;19.80;56.40
39695;DHT22;25367;-35.352;149.036;2023-09-12T09:11:50;19.80;56.30
39695;DHT22;25367;-35.352;149.036;2023-09-12T09:14:19;19.80;56.30
39695;DHT22;25367;-35.352;149.036;2023-09-12T09:16:51;19.80;56.30
39695;DHT22;25367;-35.352;149.036;2023-09-12T09:19:21;19.90;56.40
39695;DHT22;25367;-35.352;149.036;2023-09-12T09:21:50;19.80;56.40
39695;DHT22;25367;-35.352;149.036;2023-09-12T09:24:20;19.80;56.40
39695;DHT22;25367;-35.352;149.036;2023-09-12T09:26:50;19.80;56.40
39695;DHT22;25367;-35.352;149.036;2023-09-12T09:29:20;19.90;56.40
39695;DHT22;25367;-35.352;149.036;2023-09-12T09:31:53;19.90;56.40
39695;DHT22;25367;-35.352;149.036;2023-09-12T09:34:23;19.90;56.40
39695;DHT22;25367;-35.352;149.036;2023-09-12T09:36:53;19.90;56.40
39695;DHT22;25367;-35.352;149.036;2023-09-12T09:39:24;19.90;56.40
39695;DHT22;25367;-35.352;149.036;2023-09-12T09:41:54;19.90;56.40
39695;DHT22;25367;-35.352;149.036;2023-09-12T09:44:24;19.90;56.40
39695;DHT22;25367;-35.352;149.036;2023-09-12T09:47:00;19.90;56.90
39695;DHT22;25367;-35.352;149.036;2023-09-12T09:49:31;19.90;56.30
39695;DHT22;25367;-35.352;149.036;2023-09-12T09:52:00;19.90;56.30
39695;DHT22;25367;-35.352;149.036;2023-09-12T09:54:32;19.80;56.30
39695;DHT22;25367;-35.352;149.036;2023-09-12T09:57:02;19.90;56.30
39695;DHT22;25367;-35.352;149.036;2023-09-12T09:59:33;19.90;56.30
39695;DHT22;25367;-35.352;149.036;2023-09-12T10:02:07;19.90;56.30
39695;DHT22;25367;-35.352;149.036;2023-09-12T10:04:39;19.90;56.20
39695;DHT22;25367;-35.352;149.036;2023-09-12T10:07:11;19.90;56.30
39695;DHT22;25367;-35.352;149.036;2023-09-12T10:09:42;19.80;56.20
39695;DHT22;25367;-35.352;149.036;2023-09-12T10:12:14;19.90;56.30
39695;DHT22;25367;-35.352;149.036;2023-09-12T10:14:45;19.90;56.30
39695;DHT22;25367;-35.352;149.036;2023-09-12T10:17:23;19.90;56.20
39695;DHT22;25367;-35.352;149.036;2023-09-12T10:19:57;19.90;56.20
39695;DHT22;25367;-35.352;149.036;2023-09-12T10:22:34;19.90;56.20
39695;DHT22;25367;-35.352;149.036;2023-09-12T10:25:07;19.90;56.20
39695;DHT22;25367;-35.352;149.036;2023-09-12T10:27:38;19.90;56.20
39695;DHT22;25367;-35.352;149.036;2023-09-12T10:30:10;19.90;56.20
39695;DHT22;25367;-35.352;149.036;2023-09-12T10:32:46;19.90;56.20
39695;DHT22;25367;-35.352;149.036;2023-09-12T10:35:18;19.90;56.20
39695;DHT22;25367;-35.352;149.036;2023-09-12T10:37:50;19.90;56.10
39695;DHT22;25367;-35.352;149.036;2023-09-12T10:40:20;19.90;56.10
39695;DHT22;25367;-35.352;149.036;2023-09-12T10:42:52;19.90;56.00
39695;DHT22;25367;-35.352;149.036;2023-09-12T10:45:24;19.90;56.00
39695;DHT22;25367;-35.352;149.036;2023-09-12T10:47:56;19.90;56.20
39695;DHT22;25367;-35.352;149.036;2023-09-12T10:50:26;19.80;56.30
39695;DHT22;25367;-35.352;149.036;2023-09-12T10:53:07;19.80;56.40
39695;DHT22;25367;-35.352;149.036;2023-09-12T10:55:37;19.80;56.50
39695;DHT22;25367;-35.352;149.036;2023-09-12T10:58:09;19.80;57.20
39695;DHT22;25367;-35.352;149.036;2023-09-12T11:00:39;19.80;56.60
39695;DHT22;25367;-35.352;149.036;2023-09-12T11:03:41;19.80;56.70
39695;DHT22;25367;-35.352;149.036;2023-09-12T11:06:21;19.90;56.60
39695;DHT22;25367;-35.352;149.036;2023-09-12T11:09:18;19.80;56.80
39695;DHT22;25367;-35.352;149.036;2023-09-12T11:11:54;19.80;56.70
39695;DHT22;25367;-35.352;149.036;2023-09-12T11:14:24;19.80;57.00
39695;DHT22;25367;-35.352;149.036;2023-09-12T11:17:26;19.80;57.00
39695;DHT22;25367;-35.352;149.036;2023-09-12T11:20:03;19.90;56.90
39695;DHT22;25367;-35.352;149.036;2023-09-12T11:22:33;19.90;57.10
39695;DHT22;25367;-35.352;149.036;2023-09-12T11:25:03;19.80;57.10
39695;DHT22;25367;-35.352;149.036;2023-09-12T11:27:43;19.90;57.20
39695;DHT22;25367;-35.352;149.036;2023-09-12T11:30:14;19.90;57.20
39695;DHT22;25367;-35.352;149.036;2023-09-12T11:32:45;19.90;57.20
39695;DHT22;25367;-35.352;149.036;2023-09-12T11:35:23;19.90;57.20
39695;DHT22;25367;-35.352;149.036;2023-09-12T11:38:09;19.90;57.10
39695;DHT22;25367;-35.352;149.036;2023-09-12T11:40:45;20.00;57.50
39695;DHT22;25367;-35.352;149.036;2023-09-12T11:43:24;19.90;57.20
39695;DHT22;25367;-35.352;149.036;2023-09-12T11:45:55;19.90;57.10
39695;DHT22;25367;-35.352;149.036;2023-09-12T11:48:25;19.90;57.20
39695;DHT22;25367;-35.352;149.036;2023-09-12T11:50:58;19.90;57.20
39695;DHT22;25367;-35.352;149.036;2023-09-12T11:53:29;20.00;57.20
39695;DHT22;25367;-35.352;149.036;2023-09-12T11:55:59;19.90;57.20
39695;DHT22;25367;-35.352;149.036;2023-09-12T11:58:29;20.00;57.20
39695;DHT22;25367;-35.352;149.036;2023-09-12T12:00:59;20.00;57.20
39695;DHT22;25367;-35.352;149.036;2023-09-12T12:03:29;19.90;57.20
39695;DHT22;25367;-35.352;149.036;2023-09-12T12:06:02;20.00;57.20
39695;DHT22;25367;-35.352;149.036;2023-09-12T12:08:32;20.00;57.20
39695;DHT22;25367;-35.352;149.036;2023-09-12T12:11:01;20.00;57.20
39695;DHT22;25367;-35.352;149.036;2023-09-12T12:13:32;20.00;57.20
39695;DHT22;25367;-35.352;149.036;2023-09-12T12:16:15;20.00;57.10
39695;DHT22;25367;-35.352;149.036;2023-09-12T12:18:45;20.10;56.70
39695;DHT22;25367;-35.352;149.036;2023-09-12T12:21:18;20.00;56.80
39695;DHT22;25367;-35.352;149.036;2023-09-12T12:23:47;20.00;56.90
39695;DHT22;25367;-35.352;149.036;2023-09-12T12:26:26;20.00;56.90
39695;DHT22;25367;-35.352;149.036;2023-09-12T12:28:56;20.00;57.60
39695;DHT22;25367;-35.352;149.036;2023-09-12T12:31:25;20.00;57.00
39695;DHT22;25367;-35.352;149.036;2023-09-12T12:33:55;20.00;56.90
39695;DHT22;25367;-35.352;149.036;2023-09-12T12:36:28;20.00;56.80
39695;DHT22;25367;-35.352;149.036;2023-09-12T12:38:57;20.10;56.90
39695;DHT22;25367;-35.352;149.036;2023-09-12T12:41:28;20.00;56.80
39695;DHT22;25367;-35.352;149.036;2023-09-12T12:43:59;20.00;56.80
39695;DHT22;25367;-35.352;149.036;2023-09-12T12:46:30;20.00;56.80
39695;DHT22;25367;-35.352;149.036;2023-09-12T12:48:59;20.00;56.80
39695;DHT22;25367;-35.352;149.036;2023-09-12T12:51:35;20.00;56.70
39695;DHT22;25367;-35.352;149.036;2023-09-12T12:54:07;20.10;56.80
39695;DHT22;25367;-35.352;149.036;2023-09-12T12:56:38;20.10;56.70
39695;DHT22;25367;-35.352;149.036;2023-09-12T12:59:09;20.10;56.80
39695;DHT22;25367;-35.352;149.036;2023-09-12T13:01:40;20.00;56.60
39695;DHT22;25367;-35.352;149.036;2023-09-12T13:04:09;20.00;56.50
39695;DHT22;25367;-35.352;149.036;2023-09-12T13:06:44;20.10;56.60
39695;DHT22;25367;-35.352;149.036;2023-09-12T13:09:14;20.10;56.60
39695;DHT22;25367;-35.352;149.036;2023-09-12T13:11:44;20.10;56.60
39695;DHT22;25367;-35.352;149.036;2023-09-12T13:14:13;20.10;56.60
39695;DHT22;25367;-35.352;149.036;2023-09-12T13:16:43;20.10;56.60
39695;DHT22;25367;-35.352;149.036;2023-09-12T13:19:13;20.10;56.60
39695;DHT22;25367;-35.352;149.036;2023-09-12T13:21:45;20.10;56.60
39695;DHT22;25367;-35.352;149.036;2023-09-12T13:24:15;20.10;56.50
39695;DHT22;25367;-35.352;149.036;2023-09-12T13:26:44;20.10;56.50
39695;DHT22;25367;-35.352;149.036;2023-09-12T13:29:13;20.10;56.50
39695;DHT22;25367;-35.352;149.036;2023-09-12T13:31:43;20.10;56.40
